createdAt,value
2022-10-30T00:00:01.562Z,0.00
2022-10-30T00:01:01.551Z,0.00
2022-10-30T00:02:01.619Z,0.00
2022-10-30T00:03:02.263Z,0.00
2022-10-30T00:04:01.504Z,0.00
2022-10-30T00:05:01.518Z,0.00
2022-10-30T00:06:01.485Z,0.00
2022-10-30T00:07:01.481Z,0.00
2022-10-30T00:08:01.901Z,0.00
2022-10-30T00:09:01.460Z,0.00
2022-10-30T00:10:01.430Z,0.00
2022-10-30T00:11:01.443Z,0.00
2022-10-30T00:12:01.403Z,0.00
2022-10-30T00:13:01.423Z,0.00
2022-10-30T00:14:01.384Z,0.00
2022-10-30T00:15:01.362Z,0.00
2022-10-30T00:16:01.370Z,0.00
2022-10-30T00:17:01.352Z,0.00
2022-10-30T00:18:01.389Z,0.00
2022-10-30T00:19:01.320Z,0.00
2022-10-30T00:20:01.304Z,0.00
2022-10-30T00:22:30.287Z,0.00
2022-10-30T00:23:30.286Z,0.00
2022-10-30T00:24:30.258Z,0.00
2022-10-30T00:25:30.256Z,0.00
2022-10-30T00:26:30.239Z,0.00
2022-10-30T00:27:30.216Z,0.00
2022-10-30T00:28:30.226Z,0.00
2022-10-30T00:29:30.197Z,0.00
2022-10-30T00:30:30.207Z,0.00
2022-10-30T00:31:30.178Z,0.00
2022-10-30T00:32:30.153Z,0.00
2022-10-30T00:33:30.170Z,0.00
2022-10-30T00:34:30.132Z,0.00
2022-10-30T00:35:30.123Z,0.00
2022-10-30T00:36:30.094Z,0.00
2022-10-30T00:37:30.096Z,0.00
2022-10-30T00:38:30.090Z,0.00
2022-10-30T00:39:30.077Z,0.00
2022-10-30T00:40:30.045Z,0.00
2022-10-30T00:41:30.047Z,0.00
2022-10-30T00:42:30.018Z,0.00
2022-10-30T00:43:30.061Z,0.00
2022-10-30T00:44:29.987Z,0.00
2022-10-30T00:45:29.978Z,0.00
2022-10-30T00:46:29.967Z,0.00
2022-10-30T00:47:29.955Z,0.00
2022-10-30T00:48:29.964Z,0.00
2022-10-30T00:49:29.933Z,0.00
2022-10-30T00:50:29.915Z,0.00
2022-10-30T00:51:29.892Z,0.00
2022-10-30T00:52:29.882Z,0.00
2022-10-30T00:53:29.886Z,0.00
2022-10-30T00:54:29.854Z,0.00
2022-10-30T00:55:29.844Z,0.00
2022-10-30T00:56:29.831Z,0.00
2022-10-30T00:57:29.814Z,0.00
2022-10-30T00:58:29.813Z,0.00
2022-10-30T00:59:29.795Z,0.00
2022-10-30T01:00:29.778Z,0.00
2022-10-30T01:01:29.854Z,0.00
2022-10-30T01:02:29.841Z,0.00
2022-10-30T01:03:29.769Z,0.00
2022-10-30T01:04:30.362Z,0.00
2022-10-30T01:05:29.713Z,0.00
2022-10-30T01:06:29.702Z,0.00
2022-10-30T01:07:29.683Z,0.00
2022-10-30T01:08:29.697Z,0.00
2022-10-30T01:09:29.668Z,0.00
2022-10-30T01:10:29.632Z,0.00
2022-10-30T01:11:29.623Z,0.00
2022-10-30T01:12:29.624Z,0.00
2022-10-30T01:13:29.615Z,0.00
2022-10-30T01:14:29.581Z,0.00
2022-10-30T01:15:29.573Z,0.00
2022-10-30T01:16:29.552Z,0.00
2022-10-30T01:17:29.550Z,0.00
2022-10-30T01:18:29.549Z,0.00
2022-10-30T01:19:29.534Z,0.00
2022-10-30T01:20:29.502Z,0.00
2022-10-30T01:21:29.500Z,0.00
2022-10-30T01:22:29.474Z,0.00
2022-10-30T01:23:29.482Z,0.00
2022-10-30T01:24:29.451Z,0.00
2022-10-30T01:25:29.442Z,0.00
2022-10-30T01:26:29.421Z,0.00
2022-10-30T01:27:29.418Z,0.00
2022-10-30T01:28:29.513Z,0.00
2022-10-30T01:29:29.390Z,0.00
2022-10-30T01:30:29.368Z,0.00
2022-10-30T01:31:29.355Z,0.00
2022-10-30T01:32:29.364Z,0.00
2022-10-30T01:33:29.354Z,0.00
2022-10-30T01:34:29.390Z,0.00
2022-10-30T01:35:29.313Z,0.00
2022-10-30T01:36:29.282Z,0.00
2022-10-30T01:37:29.271Z,0.00
2022-10-30T01:38:29.268Z,0.00
2022-10-30T01:39:29.260Z,0.00
2022-10-30T01:40:29.240Z,0.00
2022-10-30T01:41:29.218Z,0.00
2022-10-30T01:42:29.203Z,0.00
2022-10-30T01:43:29.216Z,0.00
2022-10-30T01:44:29.180Z,0.00
2022-10-30T01:45:29.169Z,0.00
2022-10-30T01:46:29.149Z,0.00
2022-10-30T01:47:29.142Z,0.00
2022-10-30T01:48:29.138Z,0.00
2022-10-30T01:49:29.121Z,0.00
2022-10-30T01:50:29.090Z,0.00
2022-10-30T01:51:29.078Z,0.00
2022-10-30T01:52:29.080Z,0.00
2022-10-30T01:53:29.059Z,0.00
2022-10-30T01:54:29.058Z,0.00
2022-10-30T01:55:29.039Z,0.00
2022-10-30T01:56:29.019Z,0.00
2022-10-30T01:57:29.007Z,0.00
2022-10-30T01:58:29.010Z,0.00
2022-10-30T01:59:28.967Z,0.00
2022-10-30T02:00:28.960Z,0.00
2022-10-30T02:01:29.072Z,0.00
2022-10-30T02:02:29.038Z,0.00
2022-10-30T02:03:28.925Z,0.00
2022-10-30T02:04:28.919Z,0.00
2022-10-30T02:05:28.890Z,0.00
2022-10-30T02:06:28.895Z,0.00
2022-10-30T02:07:28.866Z,0.00
2022-10-30T02:08:28.864Z,0.00
2022-10-30T02:09:28.835Z,0.00
2022-10-30T02:10:28.827Z,0.00
2022-10-30T02:11:28.805Z,0.00
2022-10-30T02:12:28.806Z,0.00
2022-10-30T02:13:28.796Z,0.00
2022-10-30T02:14:28.785Z,0.00
2022-10-30T02:15:28.754Z,0.00
2022-10-30T02:16:28.796Z,0.00
2022-10-30T02:17:28.727Z,0.00
2022-10-30T02:18:28.717Z,0.00
2022-10-30T02:19:28.705Z,0.00
2022-10-30T02:20:28.714Z,0.00
2022-10-30T02:21:28.666Z,0.00
2022-10-30T02:22:28.749Z,0.00
2022-10-30T02:23:28.655Z,0.00
2022-10-30T02:24:28.637Z,0.00
2022-10-30T02:25:28.614Z,0.00
2022-10-30T02:26:28.615Z,0.00
2022-10-30T02:27:28.585Z,0.00
2022-10-30T02:28:28.636Z,0.00
2022-10-30T02:29:28.564Z,0.00
2022-10-30T02:30:28.555Z,0.00
2022-10-30T02:31:28.543Z,0.00
2022-10-30T02:32:28.531Z,0.00
2022-10-30T02:33:28.533Z,0.00
2022-10-30T02:34:28.504Z,0.00
2022-10-30T02:35:28.492Z,0.00
2022-10-30T02:36:28.472Z,0.00
2022-10-30T02:37:28.462Z,0.00
2022-10-30T02:38:28.473Z,0.00
2022-10-30T02:39:28.442Z,0.00
2022-10-30T02:40:28.432Z,0.00
2022-10-30T02:41:28.404Z,0.00
2022-10-30T02:42:28.404Z,0.00
2022-10-30T02:43:28.375Z,0.00
2022-10-30T02:44:28.391Z,0.00
2022-10-30T02:45:28.353Z,0.00
2022-10-30T02:46:28.347Z,0.00
2022-10-30T02:47:28.331Z,0.00
2022-10-30T02:48:28.322Z,0.00
2022-10-30T02:49:28.304Z,0.00
2022-10-30T02:50:28.314Z,0.00
2022-10-30T02:51:28.271Z,0.00
2022-10-30T02:52:28.272Z,0.00
2022-10-30T02:53:28.251Z,0.00
2022-10-30T02:54:28.254Z,0.00
2022-10-30T02:55:28.231Z,0.00
2022-10-30T02:56:28.240Z,0.00
2022-10-30T02:57:28.198Z,0.00
2022-10-30T02:58:28.192Z,0.00
2022-10-30T02:59:28.171Z,0.00
2022-10-30T03:00:28.182Z,0.00
2022-10-30T03:01:28.268Z,0.00
2022-10-30T03:02:28.139Z,0.00
2022-10-30T03:03:28.120Z,0.00
2022-10-30T03:04:28.112Z,0.00
2022-10-30T03:05:28.100Z,0.00
2022-10-30T03:06:28.093Z,0.00
2022-10-30T03:07:28.070Z,0.00
2022-10-30T03:08:28.059Z,0.00
2022-10-30T03:09:28.050Z,0.00
2022-10-30T03:10:28.041Z,0.00
2022-10-30T03:11:28.029Z,0.00
2022-10-30T03:12:28.019Z,0.00
2022-10-30T03:13:27.989Z,0.00
2022-10-30T03:14:27.981Z,0.00
2022-10-30T03:15:27.984Z,0.00
2022-10-30T03:16:27.979Z,0.00
2022-10-30T03:17:27.981Z,0.00
2022-10-30T03:18:27.929Z,0.00
2022-10-30T03:19:27.930Z,0.00
2022-10-30T03:20:27.921Z,0.00
2022-10-30T03:21:27.890Z,0.00
2022-10-30T03:22:27.899Z,0.00
2022-10-30T03:23:27.874Z,0.00
2022-10-30T03:24:27.861Z,0.00
2022-10-30T03:25:27.859Z,0.00
2022-10-30T03:26:27.820Z,0.00
2022-10-30T03:27:27.840Z,0.00
2022-10-30T03:28:27.798Z,0.00
2022-10-30T03:29:27.796Z,0.00
2022-10-30T03:30:27.767Z,0.00
2022-10-30T03:31:27.774Z,0.00
2022-10-30T03:32:27.750Z,0.00
2022-10-30T03:33:27.758Z,0.00
2022-10-30T03:34:27.727Z,0.00
2022-10-30T03:35:27.716Z,0.00
2022-10-30T03:36:27.701Z,0.00
2022-10-30T03:37:27.686Z,0.00
2022-10-30T03:38:27.697Z,0.00
2022-10-30T03:39:27.666Z,0.00
2022-10-30T03:40:27.647Z,0.00
2022-10-30T03:41:27.644Z,0.00
2022-10-30T03:42:27.626Z,0.00
2022-10-30T03:43:27.605Z,0.00
2022-10-30T03:44:27.614Z,0.00
2022-10-30T03:45:28.407Z,0.00
2022-10-30T03:46:27.580Z,0.00
2022-10-30T03:47:27.546Z,0.00
2022-10-30T03:48:27.547Z,0.00
2022-10-30T03:49:27.530Z,0.00
2022-10-30T03:50:27.514Z,0.00
2022-10-30T03:51:27.496Z,0.00
2022-10-30T03:52:27.484Z,0.00
2022-10-30T03:53:27.475Z,0.00
2022-10-30T03:54:27.463Z,0.00
2022-10-30T03:55:27.472Z,0.00
2022-10-30T03:56:27.432Z,0.00
2022-10-30T03:57:27.416Z,0.00
2022-10-30T03:58:27.408Z,0.00
2022-10-30T03:59:27.415Z,0.00
2022-10-30T04:00:27.392Z,0.00
2022-10-30T04:01:27.440Z,0.00
2022-10-30T04:02:27.356Z,0.00
2022-10-30T04:03:27.337Z,0.00
2022-10-30T04:04:27.325Z,0.00
2022-10-30T04:05:27.316Z,0.00
2022-10-30T04:06:27.307Z,0.00
2022-10-30T04:07:27.277Z,0.00
2022-10-30T04:08:27.275Z,0.00
2022-10-30T04:09:27.265Z,0.00
2022-10-30T04:10:27.241Z,0.00
2022-10-30T04:11:27.330Z,0.00
2022-10-30T04:12:27.232Z,0.00
2022-10-30T04:13:27.204Z,0.00
2022-10-30T04:14:27.203Z,0.00
2022-10-30T04:15:27.171Z,0.00
2022-10-30T04:16:27.164Z,0.00
2022-10-30T04:17:27.151Z,0.00
2022-10-30T04:18:27.162Z,0.00
2022-10-30T04:19:27.124Z,0.00
2022-10-30T04:20:27.112Z,0.00
2022-10-30T04:21:27.098Z,0.00
2022-10-30T04:22:27.083Z,0.00
2022-10-30T04:23:27.084Z,0.00
2022-10-30T04:24:27.081Z,0.00
2022-10-30T04:25:27.071Z,0.00
2022-10-30T04:26:27.032Z,0.00
2022-10-30T04:27:27.020Z,0.00
2022-10-30T04:28:27.024Z,0.00
2022-10-30T04:29:27.000Z,0.00
2022-10-30T04:30:27.003Z,0.00
2022-10-30T04:31:26.978Z,0.00
2022-10-30T04:32:26.959Z,0.00
2022-10-30T04:33:26.940Z,0.00
2022-10-30T04:34:26.929Z,0.00
2022-10-30T04:35:26.922Z,0.00
2022-10-30T04:36:26.933Z,0.00
2022-10-30T04:37:26.891Z,0.00
2022-10-30T04:38:26.889Z,0.00
2022-10-30T04:39:26.869Z,0.00
2022-10-30T04:40:26.861Z,0.00
2022-10-30T04:41:26.855Z,0.00
2022-10-30T04:42:26.848Z,0.00
2022-10-30T04:43:26.817Z,0.00
2022-10-30T04:44:26.799Z,0.00
2022-10-30T04:45:26.788Z,0.00
2022-10-30T04:46:26.775Z,0.00
2022-10-30T04:47:26.801Z,0.00
2022-10-30T04:48:26.757Z,0.00
2022-10-30T04:49:26.730Z,0.00
2022-10-30T04:50:26.718Z,0.00
2022-10-30T04:51:26.709Z,0.00
2022-10-30T04:52:26.700Z,0.00
2022-10-30T04:53:26.681Z,0.00
2022-10-30T04:54:26.709Z,0.00
2022-10-30T04:55:26.658Z,0.00
2022-10-30T04:56:26.647Z,0.00
2022-10-30T04:57:26.637Z,0.00
2022-10-30T04:58:26.627Z,0.00
2022-10-30T04:59:26.613Z,0.00
2022-10-30T05:00:26.617Z,0.00
2022-10-30T05:01:26.655Z,0.00
2022-10-30T05:02:26.740Z,0.00
2022-10-30T05:03:26.577Z,0.00
2022-10-30T05:04:26.539Z,0.00
2022-10-30T05:05:26.530Z,0.00
2022-10-30T05:06:26.526Z,0.00
2022-10-30T05:07:26.508Z,0.00
2022-10-30T05:08:26.487Z,0.00
2022-10-30T05:09:26.475Z,0.00
2022-10-30T05:10:26.462Z,0.00
2022-10-30T05:11:26.556Z,0.00
2022-10-30T05:12:26.438Z,0.00
2022-10-30T05:13:26.425Z,0.00
2022-10-30T05:14:26.426Z,0.00
2022-10-30T05:15:26.406Z,0.00
2022-10-30T05:16:26.393Z,0.00
2022-10-30T05:17:26.450Z,0.00
2022-10-30T05:18:26.365Z,0.00
2022-10-30T05:19:26.352Z,0.00
2022-10-30T05:20:26.343Z,0.00
2022-10-30T05:21:26.315Z,0.00
2022-10-30T05:22:26.304Z,0.00
2022-10-30T05:23:26.313Z,0.00
2022-10-30T05:24:26.284Z,0.00
2022-10-30T05:25:26.264Z,0.00
2022-10-30T05:26:26.256Z,0.00
2022-10-30T05:27:26.233Z,0.00
2022-10-30T05:28:26.238Z,0.00
2022-10-30T05:29:26.243Z,0.00
2022-10-30T05:30:26.200Z,0.00
2022-10-30T05:31:26.183Z,0.00
2022-10-30T05:32:26.181Z,0.00
2022-10-30T05:33:26.163Z,0.00
2022-10-30T05:34:26.162Z,0.00
2022-10-30T05:35:26.151Z,0.00
2022-10-30T05:36:26.119Z,0.00
2022-10-30T05:37:26.101Z,0.00
2022-10-30T05:38:26.101Z,0.00
2022-10-30T05:39:26.084Z,0.00
2022-10-30T05:40:26.073Z,0.00
2022-10-30T05:41:26.063Z,0.00
2022-10-30T05:42:26.041Z,0.00
2022-10-30T05:43:26.023Z,0.00
2022-10-30T05:44:40.810Z,0.00
2022-10-30T05:45:27.001Z,0.00
2022-10-30T05:46:26.016Z,0.00
2022-10-30T05:47:25.973Z,0.00
2022-10-30T05:48:25.978Z,0.00
2022-10-30T05:49:25.949Z,0.00
2022-10-30T05:50:25.944Z,0.00
2022-10-30T05:51:25.920Z,0.00
2022-10-30T05:52:25.921Z,0.00
2022-10-30T05:53:25.889Z,0.00
2022-10-30T05:54:25.889Z,0.00
2022-10-30T05:55:25.865Z,0.00
2022-10-30T05:56:25.863Z,0.00
2022-10-30T05:57:25.849Z,0.00
2022-10-30T05:58:25.861Z,0.00
2022-10-30T05:59:25.823Z,0.00
2022-10-30T06:00:25.820Z,0.00
2022-10-30T06:01:25.913Z,0.00
2022-10-30T06:02:25.855Z,0.00
2022-10-30T06:03:25.760Z,4.00
2022-10-30T06:04:25.781Z,4.00
2022-10-30T06:05:25.739Z,0.00
2022-10-30T06:06:25.730Z,0.00
2022-10-30T06:07:25.719Z,4.00
2022-10-30T06:08:25.710Z,4.00
2022-10-30T06:09:25.685Z,4.00
2022-10-30T06:10:25.696Z,4.00
2022-10-30T06:11:25.659Z,4.00
2022-10-30T06:12:25.658Z,4.00
2022-10-30T06:13:25.630Z,4.00
2022-10-30T06:14:25.647Z,8.00
2022-10-30T06:15:25.610Z,8.00
2022-10-30T06:16:25.648Z,8.00
2022-10-30T06:17:25.589Z,8.00
2022-10-30T06:18:25.591Z,12.00
2022-10-30T06:19:25.556Z,12.00
2022-10-30T06:20:25.555Z,12.00
2022-10-30T06:21:25.554Z,12.00
2022-10-30T06:22:25.525Z,16.00
2022-10-30T06:23:25.508Z,16.00
2022-10-30T06:24:25.486Z,20.00
2022-10-30T06:25:25.474Z,20.00
2022-10-30T06:26:25.455Z,20.00
2022-10-30T06:27:25.465Z,24.00
2022-10-30T06:28:25.446Z,28.00
2022-10-30T06:29:25.425Z,28.00
2022-10-30T06:30:25.416Z,28.00
2022-10-30T06:31:25.398Z,32.00
2022-10-30T06:32:25.389Z,36.00
2022-10-30T06:33:25.397Z,36.00
2022-10-30T06:34:25.354Z,36.00
2022-10-30T06:35:25.352Z,36.00
2022-10-30T06:36:25.334Z,40.00
2022-10-30T06:37:25.390Z,44.00
2022-10-30T06:38:25.305Z,44.00
2022-10-30T06:39:25.324Z,44.00
2022-10-30T06:40:25.273Z,48.00
2022-10-30T06:41:27.557Z,48.00
2022-10-30T06:42:25.263Z,48.00
2022-10-30T06:43:25.241Z,52.00
2022-10-30T06:44:25.223Z,52.00
2022-10-30T06:45:25.274Z,56.00
2022-10-30T06:46:28.803Z,56.00
2022-10-30T06:47:26.202Z,56.00
2022-10-30T06:48:25.183Z,64.00
2022-10-30T06:49:25.172Z,60.00
2022-10-30T06:50:25.167Z,64.00
2022-10-30T06:51:25.162Z,72.00
2022-10-30T06:52:25.161Z,76.00
2022-10-30T06:53:25.123Z,76.00
2022-10-30T06:54:25.112Z,80.00
2022-10-30T06:55:25.082Z,84.00
2022-10-30T06:56:25.129Z,92.00
2022-10-30T06:57:25.063Z,92.00
2022-10-30T06:58:25.051Z,100.00
2022-10-30T06:59:25.040Z,104.00
2022-10-30T07:00:25.029Z,108.00
2022-10-30T07:01:25.047Z,116.00
2022-10-30T07:02:25.088Z,120.00
2022-10-30T07:03:24.992Z,124.00
2022-10-30T07:04:24.980Z,128.00
2022-10-30T07:05:24.960Z,132.00
2022-10-30T07:06:24.979Z,132.00
2022-10-30T07:07:24.930Z,136.00
2022-10-30T07:08:24.934Z,136.00
2022-10-30T07:09:24.910Z,140.00
2022-10-30T07:10:24.890Z,144.00
2022-10-30T07:11:24.889Z,144.00
2022-10-30T07:12:24.870Z,148.00
2022-10-30T07:13:24.860Z,152.00
2022-10-30T07:14:24.875Z,156.00
2022-10-30T07:15:24.829Z,156.00
2022-10-30T07:16:24.809Z,160.00
2022-10-30T07:17:24.819Z,160.00
2022-10-30T07:18:24.798Z,160.00
2022-10-30T07:19:24.780Z,164.00
2022-10-30T07:20:24.767Z,164.00
2022-10-30T07:21:24.755Z,168.00
2022-10-30T07:22:24.739Z,172.00
2022-10-30T07:23:24.728Z,176.00
2022-10-30T07:24:24.718Z,176.00
2022-10-30T07:25:24.697Z,180.00
2022-10-30T07:26:24.698Z,180.00
2022-10-30T07:27:24.678Z,188.00
2022-10-30T07:28:24.659Z,188.00
2022-10-30T07:29:24.652Z,192.00
2022-10-30T07:31:35.203Z,196.00
2022-10-30T07:32:25.596Z,196.00
2022-10-30T07:33:24.596Z,196.00
2022-10-30T07:34:24.576Z,200.00
2022-10-30T07:35:24.576Z,200.00
2022-10-30T07:36:24.547Z,200.00
2022-10-30T07:37:24.581Z,204.00
2022-10-30T07:38:24.529Z,208.00
2022-10-30T07:39:24.519Z,204.00
2022-10-30T07:40:24.495Z,208.00
2022-10-30T07:41:24.496Z,208.00
2022-10-30T07:42:24.475Z,212.00
2022-10-30T07:43:24.495Z,212.00
2022-10-30T07:44:24.465Z,216.00
2022-10-30T07:45:24.447Z,220.00
2022-10-30T07:46:24.474Z,220.00
2022-10-30T07:47:24.413Z,224.00
2022-10-30T07:48:24.395Z,228.00
2022-10-30T07:49:24.416Z,224.00
2022-10-30T07:50:24.374Z,228.00
2022-10-30T07:51:24.372Z,232.00
2022-10-30T07:52:24.343Z,236.00
2022-10-30T07:53:24.342Z,236.00
2022-10-30T07:54:24.329Z,228.00
2022-10-30T07:55:24.325Z,216.00
2022-10-30T07:56:24.294Z,220.00
2022-10-30T07:57:24.324Z,224.00
2022-10-30T07:58:24.264Z,232.00
2022-10-30T07:59:24.260Z,244.00
2022-10-30T08:00:24.255Z,248.00
2022-10-30T08:01:24.335Z,252.00
2022-10-30T08:02:24.365Z,268.00
2022-10-30T08:03:24.215Z,280.00
2022-10-30T08:04:24.197Z,288.00
2022-10-30T08:05:27.208Z,300.00
2022-10-30T08:06:27.166Z,308.00
2022-10-30T08:07:24.154Z,316.00
2022-10-30T08:08:24.167Z,320.00
2022-10-30T08:09:24.131Z,324.00
2022-10-30T08:10:24.110Z,324.00
2022-10-30T08:11:24.104Z,324.00
2022-10-30T08:12:24.130Z,332.00
2022-10-30T08:13:24.079Z,336.00
2022-10-30T08:14:24.070Z,344.00
2022-10-30T08:15:24.068Z,348.00
2022-10-30T08:16:24.042Z,344.00
2022-10-30T08:17:24.029Z,348.00
2022-10-30T08:18:24.022Z,344.00
2022-10-30T08:19:24.018Z,344.00
2022-10-30T08:20:23.981Z,340.00
2022-10-30T08:21:23.982Z,336.00
2022-10-30T08:22:23.975Z,332.00
2022-10-30T08:23:23.985Z,332.00
2022-10-30T08:24:23.928Z,332.00
2022-10-30T08:25:23.930Z,340.00
2022-10-30T08:26:23.910Z,348.00
2022-10-30T08:27:23.900Z,364.00
2022-10-30T08:28:28.154Z,376.00
2022-10-30T08:29:24.900Z,388.00
2022-10-30T08:30:23.860Z,392.00
2022-10-30T08:31:23.846Z,396.00
2022-10-30T08:32:23.837Z,404.00
2022-10-30T08:33:23.826Z,408.00
2022-10-30T08:34:23.796Z,420.00
2022-10-30T08:35:23.904Z,440.00
2022-10-30T08:36:23.778Z,452.00
2022-10-30T08:37:23.768Z,464.00
2022-10-30T08:38:23.755Z,468.00
2022-10-30T08:39:23.737Z,480.00
2022-10-30T08:40:23.799Z,500.00
2022-10-30T08:41:23.709Z,512.00
2022-10-30T08:42:23.703Z,524.00
2022-10-30T08:43:23.687Z,532.00
2022-10-30T08:44:23.676Z,548.00
2022-10-30T08:45:28.146Z,556.00
2022-10-30T08:46:24.666Z,568.00
2022-10-30T08:47:23.639Z,580.00
2022-10-30T08:48:23.614Z,596.00
2022-10-30T08:49:23.614Z,604.00
2022-10-30T08:50:23.604Z,608.00
2022-10-30T08:51:23.605Z,616.00
2022-10-30T08:52:23.566Z,624.00
2022-10-30T08:53:23.572Z,616.00
2022-10-30T08:54:23.544Z,560.00
2022-10-30T08:55:23.529Z,508.00
2022-10-30T08:56:23.515Z,624.00
2022-10-30T08:57:23.514Z,624.00
2022-10-30T08:58:23.486Z,616.00
2022-10-30T08:59:23.476Z,632.00
2022-10-30T09:00:23.532Z,652.00
2022-10-30T09:01:23.576Z,644.00
2022-10-30T09:02:23.581Z,644.00
2022-10-30T09:03:23.432Z,668.00
2022-10-30T09:04:23.414Z,680.00
2022-10-30T09:05:23.404Z,688.00
2022-10-30T09:06:23.403Z,696.00
2022-10-30T09:07:23.375Z,696.00
2022-10-30T09:08:23.385Z,704.00
2022-10-30T09:09:23.353Z,716.00
2022-10-30T09:10:23.394Z,724.00
2022-10-30T09:11:23.323Z,732.00
2022-10-30T09:12:23.303Z,736.00
2022-10-30T09:13:23.292Z,716.00
2022-10-30T09:14:23.293Z,740.00
2022-10-30T09:15:23.264Z,724.00
2022-10-30T09:16:23.256Z,736.00
2022-10-30T09:17:23.242Z,748.00
2022-10-30T09:18:23.222Z,748.00
2022-10-30T09:19:23.211Z,748.00
2022-10-30T09:20:23.253Z,744.00
2022-10-30T09:21:23.182Z,732.00
2022-10-30T09:22:23.162Z,736.00
2022-10-30T09:23:23.163Z,748.00
2022-10-30T09:24:23.152Z,772.00
2022-10-30T09:25:23.155Z,788.00
2022-10-30T09:26:23.117Z,796.00
2022-10-30T09:27:23.113Z,804.00
2022-10-30T09:28:23.096Z,808.00
2022-10-30T09:29:23.084Z,796.00
2022-10-30T09:30:23.159Z,800.00
2022-10-30T09:31:23.061Z,800.00
2022-10-30T09:32:23.040Z,788.00
2022-10-30T09:33:23.033Z,784.00
2022-10-30T09:34:23.072Z,796.00
2022-10-30T09:35:23.011Z,804.00
2022-10-30T09:36:23.000Z,820.00
2022-10-30T09:37:22.978Z,744.00
2022-10-30T09:38:22.969Z,820.00
2022-10-30T09:39:22.960Z,816.00
2022-10-30T09:40:23.035Z,816.00
2022-10-30T09:41:22.939Z,804.00
2022-10-30T09:42:22.900Z,804.00
2022-10-30T09:43:22.890Z,808.00
2022-10-30T09:44:22.890Z,804.00
2022-10-30T09:45:29.374Z,796.00
2022-10-30T09:46:23.861Z,788.00
2022-10-30T09:47:23.688Z,772.00
2022-10-30T09:48:22.823Z,780.00
2022-10-30T09:49:22.820Z,776.00
2022-10-30T09:50:22.852Z,776.00
2022-10-30T09:51:22.789Z,776.00
2022-10-30T09:52:22.790Z,732.00
2022-10-30T09:53:22.767Z,632.00
2022-10-30T09:54:22.748Z,620.00
2022-10-30T09:55:22.749Z,564.00
2022-10-30T09:56:22.719Z,596.00
2022-10-30T09:57:22.729Z,656.00
2022-10-30T09:58:22.701Z,704.00
2022-10-30T09:59:22.688Z,824.00
2022-10-30T10:00:22.827Z,988.00
2022-10-30T10:01:22.749Z,1072.00
2022-10-30T10:02:22.755Z,1156.00
2022-10-30T10:03:22.643Z,1012.00
2022-10-30T10:04:26.471Z,1124.00
2022-10-30T10:05:22.608Z,1096.00
2022-10-30T10:06:22.600Z,1104.00
2022-10-30T10:07:22.587Z,1256.00
2022-10-30T10:08:22.580Z,1120.00
2022-10-30T10:09:22.568Z,1112.00
2022-10-30T10:10:22.608Z,1188.00
2022-10-30T10:11:22.528Z,1024.00
2022-10-30T10:12:22.519Z,1016.00
2022-10-30T10:13:22.529Z,1012.00
2022-10-30T10:14:22.489Z,972.00
2022-10-30T10:15:22.471Z,980.00
2022-10-30T10:16:22.475Z,964.00
2022-10-30T10:17:22.449Z,936.00
2022-10-30T10:18:22.466Z,924.00
2022-10-30T10:19:22.430Z,880.00
2022-10-30T10:20:22.400Z,828.00
2022-10-30T10:21:22.397Z,824.00
2022-10-30T10:22:22.377Z,732.00
2022-10-30T10:23:22.384Z,628.00
2022-10-30T10:24:22.367Z,604.00
2022-10-30T10:25:22.346Z,600.00
2022-10-30T10:26:22.317Z,620.00
2022-10-30T10:27:22.325Z,652.00
2022-10-30T10:28:22.312Z,680.00
2022-10-30T10:29:22.328Z,752.00
2022-10-30T10:30:22.272Z,720.00
2022-10-30T10:31:22.266Z,736.00
2022-10-30T10:32:22.267Z,740.00
2022-10-30T10:34:22.238Z,728.00
2022-10-30T10:35:22.238Z,676.00
2022-10-30T10:36:22.195Z,648.00
2022-10-30T10:37:22.186Z,672.00
2022-10-30T10:38:22.172Z,676.00
2022-10-30T10:39:22.157Z,732.00
2022-10-30T10:40:22.155Z,740.00
2022-10-30T10:41:22.140Z,828.00
2022-10-30T10:42:22.116Z,836.00
2022-10-30T10:43:22.112Z,856.00
2022-10-30T10:44:22.086Z,848.00
2022-10-30T10:45:22.078Z,832.00
2022-10-30T10:46:22.079Z,784.00
2022-10-30T10:47:22.051Z,768.00
2022-10-30T10:48:22.050Z,844.00
2022-10-30T10:49:22.027Z,944.00
2022-10-30T10:50:22.007Z,1036.00
2022-10-30T10:51:21.997Z,1012.00
2022-10-30T10:52:22.016Z,1112.00
2022-10-30T10:53:21.978Z,1016.00
2022-10-30T10:54:21.975Z,1216.00
2022-10-30T10:55:21.949Z,1200.00
2022-10-30T10:56:21.937Z,1308.00
2022-10-30T10:57:21.969Z,1804.00
2022-10-30T10:58:21.926Z,1920.00
2022-10-30T10:59:21.896Z,1820.00
2022-10-30T11:00:21.914Z,1692.00
2022-10-30T11:01:22.012Z,1932.00
2022-10-30T11:02:21.971Z,2140.00
2022-10-30T11:03:21.872Z,1812.00
2022-10-30T11:04:21.825Z,1032.00
2022-10-30T11:05:21.814Z,1876.00
2022-10-30T11:06:21.795Z,1920.00
2022-10-30T11:07:21.847Z,2020.00
2022-10-30T11:08:21.853Z,1776.00
2022-10-30T11:09:21.908Z,2204.00
2022-10-30T11:10:21.824Z,2272.00
2022-10-30T11:11:21.816Z,2388.00
2022-10-30T11:12:21.726Z,1760.00
2022-10-30T11:13:21.715Z,2508.00
2022-10-30T11:14:21.715Z,2452.00
2022-10-30T11:15:21.698Z,2384.00
2022-10-30T11:16:21.677Z,2480.00
2022-10-30T11:17:21.663Z,2448.00
2022-10-30T11:18:21.667Z,2384.00
2022-10-30T11:19:21.659Z,1412.00
2022-10-30T11:20:21.627Z,2716.00
2022-10-30T11:21:21.615Z,2988.00
2022-10-30T11:22:21.594Z,2812.00
2022-10-30T11:23:21.586Z,2872.00
2022-10-30T11:24:21.587Z,2856.00
2022-10-30T11:25:25.288Z,2624.00
2022-10-30T11:26:22.538Z,2668.00
2022-10-30T11:27:21.535Z,2372.00
2022-10-30T11:28:21.508Z,2396.00
2022-10-30T11:29:21.516Z,2380.00
2022-10-30T11:30:21.489Z,2232.00
2022-10-30T11:31:21.479Z,2312.00
2022-10-30T11:32:21.466Z,2032.00
2022-10-30T11:33:21.457Z,2068.00
2022-10-30T11:34:21.466Z,1952.00
2022-10-30T11:35:21.414Z,1712.00
2022-10-30T11:36:21.405Z,1580.00
2022-10-30T11:37:21.403Z,1460.00
2022-10-30T11:38:21.400Z,1272.00
2022-10-30T11:39:21.377Z,1148.00
2022-10-30T11:40:21.365Z,1016.00
2022-10-30T11:41:21.344Z,880.00
2022-10-30T11:42:21.324Z,852.00
2022-10-30T11:43:21.329Z,888.00
2022-10-30T11:44:21.307Z,616.00
2022-10-30T11:45:21.318Z,704.00
2022-10-30T11:46:21.274Z,728.00
2022-10-30T11:47:21.294Z,720.00
2022-10-30T11:48:21.443Z,692.00
2022-10-30T11:49:21.235Z,688.00
2022-10-30T11:50:21.277Z,636.00
2022-10-30T11:51:21.271Z,624.00
2022-10-30T11:52:21.196Z,628.00
2022-10-30T11:53:21.197Z,584.00
2022-10-30T11:54:21.184Z,596.00
2022-10-30T11:55:21.176Z,592.00
2022-10-30T11:56:21.153Z,584.00
2022-10-30T11:57:21.145Z,592.00
2022-10-30T11:58:21.134Z,608.00
2022-10-30T11:59:21.116Z,624.00
2022-10-30T12:00:21.113Z,644.00
2022-10-30T12:01:21.141Z,644.00
2022-10-30T12:02:21.184Z,648.00
2022-10-30T12:03:21.065Z,656.00
2022-10-30T12:04:21.046Z,656.00
2022-10-30T12:05:21.038Z,652.00
2022-10-30T12:06:21.017Z,632.00
2022-10-30T12:07:21.013Z,628.00
2022-10-30T12:08:21.002Z,624.00
2022-10-30T12:09:20.982Z,636.00
2022-10-30T12:10:20.965Z,628.00
2022-10-30T12:11:20.965Z,620.00
2022-10-30T12:12:20.943Z,620.00
2022-10-30T12:13:20.926Z,620.00
2022-10-30T12:14:20.915Z,620.00
2022-10-30T12:15:20.905Z,632.00
2022-10-30T12:16:20.896Z,636.00
2022-10-30T12:17:20.885Z,624.00
2022-10-30T12:18:20.913Z,628.00
2022-10-30T12:19:20.848Z,640.00
2022-10-30T12:20:20.832Z,648.00
2022-10-30T12:21:20.837Z,632.00
2022-10-30T12:22:20.832Z,608.00
2022-10-30T12:23:20.796Z,624.00
2022-10-30T12:24:20.788Z,612.00
2022-10-30T12:25:20.763Z,616.00
2022-10-30T12:26:20.764Z,616.00
2022-10-30T12:27:22.572Z,584.00
2022-10-30T12:28:20.743Z,584.00
2022-10-30T12:29:20.714Z,576.00
2022-10-30T12:30:20.705Z,572.00
2022-10-30T12:31:20.688Z,564.00
2022-10-30T12:32:20.674Z,544.00
2022-10-30T12:33:20.694Z,548.00
2022-10-30T12:34:20.664Z,544.00
2022-10-30T12:35:20.635Z,540.00
2022-10-30T12:36:20.633Z,548.00
2022-10-30T12:37:20.613Z,564.00
2022-10-30T12:38:20.605Z,552.00
2022-10-30T12:39:20.598Z,552.00
2022-10-30T12:40:20.576Z,544.00
2022-10-30T12:41:20.554Z,536.00
2022-10-30T12:42:20.544Z,532.00
2022-10-30T12:43:20.554Z,532.00
2022-10-30T12:44:20.524Z,520.00
2022-10-30T12:45:20.513Z,516.00
2022-10-30T12:46:20.493Z,504.00
2022-10-30T12:47:20.473Z,496.00
2022-10-30T12:48:20.473Z,496.00
2022-10-30T12:49:20.454Z,496.00
2022-10-30T12:50:20.494Z,500.00
2022-10-30T12:51:23.944Z,504.00
2022-10-30T12:52:20.409Z,504.00
2022-10-30T12:53:20.405Z,504.00
2022-10-30T12:54:20.398Z,504.00